Gillette, WY

2:49 PM MDT on October 25, 2014 (GMT -0600)
RAWS ECHETA WY US | Change Station
CLOSE
Current Station
Personal Weather Station
Location: Gillette, WY
Elevation: 4396 ft
Nearby Weather Stations

Elev 4396 ft 44.47 °N, 105.84 °W | Updated 58 minutes ago

Clear
Clear
79 °F
Feels Like 78 °F
N
16
Wind Variable Wind from SSE
Gusts 23.0 mph

Today
High -- | Low -- °F
--% Chance of Precip.
Yesterday
High -- | Low -- °F
Precip. -- in
7:30 AM 6:01 PM
Waxing Crescent, 4% visible
Pressure 29.94 in
Visibility 10.0 miles
Clouds Clear
Heat Index 78 °F
Dew Point 22 °F
Humidity 12%
Rainfall 0.00 in
Snow Depth Not available.
UV 4 out of 12
Pollen 1.70 out of 12
Air Quality Not available.
Flu Activity Sporadic
METAR KGCC 251953Z AUTO 16017KT 10SM CLR 23/01 A2999 RMK AO2 SLP137 T02280011

More Conditions Fewer Conditions

Pressure 29.94 in
Visibility 10.0 miles
Clouds Clear
Heat Index 78 °F
Dew Point 22 °F
Humidity 12%
Rainfall 0.00 in
Snow Depth Not available.
UV 4 out of 12
Pollen 1.70 out of 12
Air Quality Not available.
Flu Activity Sporadic
METAR KGCC 251953Z AUTO 16017KT 10SM CLR 23/01 A2999 RMK AO2 SLP137 T02280011

More Conditions Fewer Conditions

10-Day Weather Forecast

Almanac

Astronomy

Oct. 25, 2014 Rise Set
Actual Time 7:30 AM MDT 6:01 PM MDT
Civil Twilight 7:01 AM MDT 6:31 PM MDT
Nautical Twilight 6:26 AM MDT 7:05 PM MDT
Astronomical Twilight 5:53 AM MDT 7:39 PM MDT
Moon 9:15 AM MDT 7:23 PM MDT
Length of Visible Light 11h 30m
Length of Day
10h 30m
Tomorrow will be 2m 51s shorter.
Waxing Crescent, 4% of the Moon is Illuminated
Today
Waxing Crescent
Oct 30
First Quarter
Nov 6
Full
Nov 14
Last Quarter
Nov 22
New

Today's Extremes

State Highs State Lows

Community

WunderPhotos

Upload Photos

1,764,989 photos uploaded!

Nearby

Snow Depth

Station Depth Elevation
Reno Hill 0 in 8500 ft
Windy Peak 0 in 7900 ft
Townsend Creek 0 in 8700 ft
Sand Lake 4 in 10050 ft
Big Sandy Opening 1 in 9080 ft

Earthquake Activity

City Distance Mag. Time & Date
No recent earthquake activity has been reported nearby.
Minimum magnitude displayed is 2.5.

Coastal Water Temperatures

Place Temperature
No Stations Reporting

Nearby Weather Stations